sensor_id;sensor_type;location;lat;lon;timestamp;pressure;altitude;pressure_sealevel;temperature;humidity
65760;BME280;52496;51.082;5.066;2023-03-13T00:01:43;100232.00;;;10.75;100.00
65760;BME280;52496;51.082;5.066;2023-03-13T00:04:14;100231.34;;;10.73;100.00
65760;BME280;52496;51.082;5.066;2023-03-13T00:06:44;100220.03;;;10.71;100.00
65760;BME280;52496;51.082;5.066;2023-03-13T00:09:15;100227.44;;;10.69;100.00
65760;BME280;52496;51.082;5.066;2023-03-13T00:11:46;100222.09;;;10.69;100.00
65760;BME280;52496;51.082;5.066;2023-03-13T00:14:16;100214.47;;;10.66;100.00
65760;BME280;52496;51.082;5.066;2023-03-13T00:16:47;100206.84;;;10.63;100.00
65760;BME280;52496;51.082;5.066;2023-03-13T00:19:17;100198.00;;;10.62;100.00
65760;BME280;52496;51.082;5.066;2023-03-13T00:21:48;100192.84;;;10.61;100.00
65760;BME280;52496;51.082;5.066;2023-03-13T00:24:18;100193.06;;;10.59;100.00
65760;BME280;52496;51.082;5.066;2023-03-13T00:26:48;100188.53;;;10.60;100.00
65760;BME280;52496;51.082;5.066;2023-03-13T00:29:19;100186.88;;;10.59;100.00
65760;BME280;52496;51.082;5.066;2023-03-13T00:31:49;100179.69;;;10.59;100.00
65760;BME280;52496;51.082;5.066;2023-03-13T00:34:20;100168.16;;;10.59;100.00
65760;BME280;52496;51.082;5.066;2023-03-13T00:36:53;100172.50;;;10.60;100.00
65760;BME280;52496;51.082;5.066;2023-03-13T00:39:24;100164.47;;;10.60;100.00
65760;BME280;52496;51.082;5.066;2023-03-13T00:41:55;100159.13;;;10.60;100.00
65760;BME280;52496;51.082;5.066;2023-03-13T00:44:25;100157.91;;;10.62;100.00
65760;BME280;52496;51.082;5.066;2023-03-13T00:46:56;100151.72;;;10.62;100.00
65760;BME280;52496;51.082;5.066;2023-03-13T00:49:26;100142.88;;;10.61;100.00
65760;BME280;52496;51.082;5.066;2023-03-13T00:51:57;100141.88;;;10.62;100.00
65760;BME280;52496;51.082;5.066;2023-03-13T00:54:27;100132.00;;;10.63;100.00
65760;BME280;52496;51.082;5.066;2023-03-13T00:56:58;100122.94;;;10.64;100.00
65760;BME280;52496;51.082;5.066;2023-03-13T00:59:29;100112.25;;;10.64;100.00
65760;BME280;52496;51.082;5.066;2023-03-13T01:01:59;100112.25;;;10.64;100.00
65760;BME280;52496;51.082;5.066;2023-03-13T01:04:30;100116.53;;;10.65;100.00
65760;BME280;52496;51.082;5.066;2023-03-13T01:07:00;100113.47;;;10.68;100.00
65760;BME280;52496;51.082;5.066;2023-03-13T01:09:31;100109.78;;;10.69;100.00
65760;BME280;52496;51.082;5.066;2023-03-13T01:12:01;100107.72;;;10.71;100.00
65760;BME280;52496;51.082;5.066;2023-03-13T01:14:32;100102.38;;;10.71;100.00
65760;BME280;52496;51.082;5.066;2023-03-13T01:17:02;100105.66;;;10.73;100.00
65760;BME280;52496;51.082;5.066;2023-03-13T01:19:33;100095.78;;;10.73;100.00
65760;BME280;52496;51.082;5.066;2023-03-13T01:22:03;100103.00;;;10.73;100.00
65760;BME280;52496;51.082;5.066;2023-03-13T01:24:34;100090.44;;;10.73;100.00
65760;BME280;52496;51.082;5.066;2023-03-13T01:27:04;100083.25;;;10.74;100.00
65760;BME280;52496;51.082;5.066;2023-03-13T01:29:35;100089.22;;;10.76;100.00
65760;BME280;52496;51.082;5.066;2023-03-13T01:32:05;100085.50;;;10.77;100.00
65760;BME280;52496;51.082;5.066;2023-03-13T01:34:36;100086.34;;;10.77;100.00
65760;BME280;52496;51.082;5.066;2023-03-13T01:37:07;100081.81;;;10.78;100.00
65760;BME280;52496;51.082;5.066;2023-03-13T01:39:38;100080.78;;;10.79;100.00
65760;BME280;52496;51.082;5.066;2023-03-13T01:42:09;100089.44;;;10.81;100.00
65760;BME280;52496;51.082;5.066;2023-03-13T01:44:51;100084.69;;;10.83;100.00
65760;BME280;52496;51.082;5.066;2023-03-13T01:47:22;100074.63;;;10.85;100.00
65760;BME280;52496;51.082;5.066;2023-03-13T01:49:52;100063.72;;;10.87;100.00
65760;BME280;52496;51.082;5.066;2023-03-13T01:52:26;100057.13;;;10.89;100.00
65760;BME280;52496;51.082;5.066;2023-03-13T01:55:04;100046.84;;;10.93;100.00
65760;BME280;52496;51.082;5.066;2023-03-13T01:57:45;100040.25;;;10.95;100.00
65760;BME280;52496;51.082;5.066;2023-03-13T02:00:19;100033.47;;;10.99;100.00
65760;BME280;52496;51.082;5.066;2023-03-13T02:02:54;100023.38;;;11.01;100.00
65760;BME280;52496;51.082;5.066;2023-03-13T02:05:27;100013.28;;;11.03;100.00
65760;BME280;52496;51.082;5.066;2023-03-13T02:08:21;100017.41;;;11.06;100.00
65760;BME280;52496;51.082;5.066;2023-03-13T02:11:22;99981.41;;;11.09;100.00
65760;BME280;52496;51.082;5.066;2023-03-13T02:13:49;99979.31;;;11.11;100.00
65760;BME280;52496;51.082;5.066;2023-03-13T02:16:21;99967.59;;;11.12;100.00
65760;BME280;52496;51.082;5.066;2023-03-13T02:18:52;99976.25;;;11.14;100.00
65760;BME280;52496;51.082;5.066;2023-03-13T02:21:32;99965.56;;;11.14;100.00
65760;BME280;52496;51.082;5.066;2023-03-13T02:24:37;99967.19;;;11.15;100.00
65760;BME280;52496;51.082;5.066;2023-03-13T02:27:06;99971.50;;;11.16;100.00
65760;BME280;52496;51.082;5.066;2023-03-13T02:29:36;99967.81;;;11.17;100.00
65760;BME280;52496;51.082;5.066;2023-03-13T02:32:07;99969.22;;;11.19;100.00
65760;BME280;52496;51.082;5.066;2023-03-13T02:34:39;99963.88;;;11.19;100.00
65760;BME280;52496;51.082;5.066;2023-03-13T02:37:11;99965.31;;;11.22;100.00
65760;BME280;52496;51.082;5.066;2023-03-13T02:39:46;99965.94;;;11.24;100.00
65760;BME280;52496;51.082;5.066;2023-03-13T02:42:20;99951.31;;;11.27;100.00
65760;BME280;52496;51.082;5.066;2023-03-13T02:44:51;99950.06;;;11.29;100.00
65760;BME280;52496;51.082;5.066;2023-03-13T02:47:23;99939.13;;;11.31;100.00
65760;BME280;52496;51.082;5.066;2023-03-13T02:49:54;99943.88;;;11.35;100.00
65760;BME280;52496;51.082;5.066;2023-03-13T02:52:36;99932.75;;;11.38;100.00
65760;BME280;52496;51.082;5.066;2023-03-13T02:55:17;99921.59;;;11.41;100.00
65760;BME280;52496;51.082;5.066;2023-03-13T02:57:51;99941.56;;;11.45;100.00
65760;BME280;52496;51.082;5.066;2023-03-13T03:00:21;99952.47;;;11.51;100.00
65760;BME280;52496;51.082;5.066;2023-03-13T03:02:55;99948.31;;;11.55;100.00
65760;BME280;52496;51.082;5.066;2023-03-13T03:05:26;99953.88;;;11.60;100.00
65760;BME280;52496;51.082;5.066;2023-03-13T03:07:56;99939.00;;;11.64;100.00
65760;BME280;52496;51.082;5.066;2023-03-13T03:10:27;99952.78;;;11.67;100.00
65760;BME280;52496;51.082;5.066;2023-03-13T03:12:57;99947.81;;;11.71;100.00
65760;BME280;52496;51.082;5.066;2023-03-13T03:15:28;99952.31;;;11.77;100.00
65760;BME280;52496;51.082;5.066;2023-03-13T03:17:58;99959.72;;;11.82;100.00
65760;BME280;52496;51.082;5.066;2023-03-13T03:20:29;99946.75;;;11.85;100.00
65760;BME280;52496;51.082;5.066;2023-03-13T03:22:59;99944.47;;;11.89;100.00
65760;BME280;52496;51.082;5.066;2023-03-13T03:25:30;99951.63;;;11.95;100.00
65760;BME280;52496;51.082;5.066;2023-03-13T03:28:00;99936.56;;;12.01;100.00
65760;BME280;52496;51.082;5.066;2023-03-13T03:30:31;99920.06;;;12.04;100.00
65760;BME280;52496;51.082;5.066;2023-03-13T03:33:01;99929.91;;;12.10;100.00
65760;BME280;52496;51.082;5.066;2023-03-13T03:35:32;99931.34;;;12.12;100.00
65760;BME280;52496;51.082;5.066;2023-03-13T03:38:07;99942.25;;;12.18;100.00
65760;BME280;52496;51.082;5.066;2023-03-13T03:40:38;99922.81;;;12.22;100.00
65760;BME280;52496;51.082;5.066;2023-03-13T03:43:08;99929.38;;;12.26;100.00
65760;BME280;52496;51.082;5.066;2023-03-13T03:45:39;99923.56;;;12.29;100.00
65760;BME280;52496;51.082;5.066;2023-03-13T03:48:09;99919.88;;;12.30;100.00
65760;BME280;52496;51.082;5.066;2023-03-13T03:50:39;99910.78;;;12.31;100.00
65760;BME280;52496;51.082;5.066;2023-03-13T03:53:10;99908.72;;;12.33;100.00
65760;BME280;52496;51.082;5.066;2023-03-13T03:55:41;99912.59;;;12.37;100.00
65760;BME280;52496;51.082;5.066;2023-03-13T03:58:12;99911.34;;;12.40;100.00
65760;BME280;52496;51.082;5.066;2023-03-13T04:00:46;99925.13;;;12.44;100.00
65760;BME280;52496;51.082;5.066;2023-03-13T04:03:17;99916.19;;;12.50;100.00
65760;BME280;52496;51.082;5.066;2023-03-13T04:05:47;99908.53;;;12.53;100.00
65760;BME280;52496;51.082;5.066;2023-03-13T04:08:18;99908.09;;;12.56;100.00
65760;BME280;52496;51.082;5.066;2023-03-13T04:10:49;99894.47;;;12.58;100.00
65760;BME280;52496;51.082;5.066;2023-03-13T04:13:20;99890.91;;;12.64;100.00
65760;BME280;52496;51.082;5.066;2023-03-13T04:15:50;99897.84;;;12.72;100.00
65760;BME280;52496;51.082;5.066;2023-03-13T04:18:20;99901.94;;;12.74;100.00
65760;BME280;52496;51.082;5.066;2023-03-13T04:21:00;99886.47;;;12.76;100.00
65760;BME280;52496;51.082;5.066;2023-03-13T04:23:31;99875.72;;;12.76;100.00
65760;BME280;52496;51.082;5.066;2023-03-13T04:26:02;99872.00;;;12.77;100.00
65760;BME280;52496;51.082;5.066;2023-03-13T04:28:32;99865.38;;;12.80;100.00
65760;BME280;52496;51.082;5.066;2023-03-13T04:31:03;99875.88;;;12.81;100.00
65760;BME280;52496;51.082;5.066;2023-03-13T04:33:33;99861.41;;;12.82;100.00
65760;BME280;52496;51.082;5.066;2023-03-13T04:36:06;99851.50;;;12.83;100.00
65760;BME280;52496;51.082;5.066;2023-03-13T04:38:36;99842.63;;;12.82;100.00
65760;BME280;52496;51.082;5.066;2023-03-13T04:41:07;99845.94;;;12.84;100.00
65760;BME280;52496;51.082;5.066;2023-03-13T04:43:38;99850.25;;;12.85;100.00
65760;BME280;52496;51.082;5.066;2023-03-13T04:46:08;99863.41;;;12.87;100.00
65760;BME280;52496;51.082;5.066;2023-03-13T04:48:38;99864.47;;;12.86;100.00
65760;BME280;52496;51.082;5.066;2023-03-13T04:51:09;99886.31;;;12.90;100.00
65760;BME280;52496;51.082;5.066;2023-03-13T04:53:39;99875.13;;;12.93;100.00
65760;BME280;52496;51.082;5.066;2023-03-13T04:56:11;99873.66;;;12.97;100.00
65760;BME280;52496;51.082;5.066;2023-03-13T04:58:46;99878.56;;;13.00;100.00
65760;BME280;52496;51.082;5.066;2023-03-13T05:01:18;99865.16;;;13.00;100.00
65760;BME280;52496;51.082;5.066;2023-03-13T05:03:49;99852.31;;;13.02;100.00
65760;BME280;52496;51.082;5.066;2023-03-13T05:06:19;99857.22;;;13.05;100.00
65760;BME280;52496;51.082;5.066;2023-03-13T05:08:50;99856.22;;;13.06;100.00
65760;BME280;52496;51.082;5.066;2023-03-13T05:11:21;99874.53;;;13.09;100.00
65760;BME280;52496;51.082;5.066;2023-03-13T05:13:51;99872.44;;;13.11;100.00
65760;BME280;52496;51.082;5.066;2023-03-13T05:16:22;99864.19;;;13.13;100.00
65760;BME280;52496;51.082;5.066;2023-03-13T05:18:52;99870.59;;;13.12;100.00
65760;BME280;52496;51.082;5.066;2023-03-13T05:21:23;99855.06;;;13.14;100.00
65760;BME280;52496;51.082;5.066;2023-03-13T05:23:53;99855.88;;;13.14;100.00
65760;BME280;52496;51.082;5.066;2023-03-13T05:26:24;99871.53;;;13.17;100.00
65760;BME280;52496;51.082;5.066;2023-03-13T05:28:55;99863.63;;;13.22;100.00
65760;BME280;52496;51.082;5.066;2023-03-13T05:31:25;99850.81;;;13.24;100.00
65760;BME280;52496;51.082;5.066;2023-03-13T05:33:56;99841.75;;;13.25;100.00
65760;BME280;52496;51.082;5.066;2023-03-13T05:36:26;99849.94;;;13.30;100.00
65760;BME280;52496;51.082;5.066;2023-03-13T05:38:57;99832.56;;;13.33;100.00
65760;BME280;52496;51.082;5.066;2023-03-13T05:41:27;99835.47;;;13.31;100.00
65760;BME280;52496;51.082;5.066;2023-03-13T05:43:58;99830.09;;;13.31;100.00
65760;BME280;52496;51.082;5.066;2023-03-13T05:46:28;99833.59;;;13.32;100.00
65760;BME280;52496;51.082;5.066;2023-03-13T05:49:00;99842.47;;;13.32;100.00
65760;BME280;52496;51.082;5.066;2023-03-13T05:51:30;99842.25;;;13.34;100.00
65760;BME280;52496;51.082;5.066;2023-03-13T05:54:01;99846.56;;;13.35;100.00
65760;BME280;52496;51.082;5.066;2023-03-13T05:56:31;99835.00;;;13.35;100.00
65760;BME280;52496;51.082;5.066;2023-03-13T05:59:02;99829.44;;;13.36;100.00
65760;BME280;52496;51.082;5.066;2023-03-13T06:01:33;99829.19;;;13.38;100.00
65760;BME280;52496;51.082;5.066;2023-03-13T06:04:04;99835.38;;;13.38;100.00
65760;BME280;52496;51.082;5.066;2023-03-13T06:06:34;99838.50;;;13.35;100.00
65760;BME280;52496;51.082;5.066;2023-03-13T06:09:05;99842.00;;;13.36;100.00
65760;BME280;52496;51.082;5.066;2023-03-13T06:11:35;99841.19;;;13.35;100.00
65760;BME280;52496;51.082;5.066;2023-03-13T06:14:06;99836.63;;;13.36;100.00
65760;BME280;52496;51.082;5.066;2023-03-13T06:16:37;99836.19;;;13.39;100.00
65760;BME280;52496;51.082;5.066;2023-03-13T06:19:07;99818.00;;;13.41;100.00
65760;BME280;52496;51.082;5.066;2023-03-13T06:21:38;99823.16;;;13.42;100.00
65760;BME280;52496;51.082;5.066;2023-03-13T06:24:08;99833.66;;;13.44;100.00
65760;BME280;52496;51.082;5.066;2023-03-13T06:26:39;99820.22;;;13.44;100.00
65760;BME280;52496;51.082;5.066;2023-03-13T06:29:10;99821.63;;;13.46;100.00
65760;BME280;52496;51.082;5.066;2023-03-13T06:31:41;99800.97;;;13.47;100.00
65760;BME280;52496;51.082;5.066;2023-03-13T06:34:14;99807.16;;;13.47;100.00
65760;BME280;52496;51.082;5.066;2023-03-13T06:36:45;99805.53;;;13.46;100.00
65760;BME280;52496;51.082;5.066;2023-03-13T06:39:15;99811.72;;;13.47;100.00
65760;BME280;52496;51.082;5.066;2023-03-13T06:41:46;99812.53;;;13.47;100.00
65760;BME280;52496;51.082;5.066;2023-03-13T06:44:16;99830.50;;;13.47;100.00
65760;BME280;52496;51.082;5.066;2023-03-13T06:46:47;99817.06;;;13.47;100.00
65760;BME280;52496;51.082;5.066;2023-03-13T06:49:17;99801.78;;;13.47;100.00
65760;BME280;52496;51.082;5.066;2023-03-13T06:51:47;99827.81;;;13.47;100.00
65760;BME280;52496;51.082;5.066;2023-03-13T06:54:18;99826.56;;;13.49;100.00
65760;BME280;52496;51.082;5.066;2023-03-13T06:56:49;99815.56;;;13.51;100.00
65760;BME280;52496;51.082;5.066;2023-03-13T06:59:20;99818.25;;;13.51;100.00
65760;BME280;52496;51.082;5.066;2023-03-13T07:01:50;99824.47;;;13.51;100.00
65760;BME280;52496;51.082;5.066;2023-03-13T07:04:21;99830.66;;;13.52;100.00
65760;BME280;52496;51.082;5.066;2023-03-13T07:06:51;99833.91;;;13.54;100.00
65760;BME280;52496;51.082;5.066;2023-03-13T07:09:22;99819.44;;;13.55;100.00
65760;BME280;52496;51.082;5.066;2023-03-13T07:11:52;99835.09;;;13.58;100.00
65760;BME280;52496;51.082;5.066;2023-03-13T07:14:23;99832.19;;;13.60;100.00
65760;BME280;52496;51.082;5.066;2023-03-13T07:16:53;99818.53;;;13.61;100.00
65760;BME280;52496;51.082;5.066;2023-03-13T07:19:24;99822.03;;;13.62;100.00
65760;BME280;52496;51.082;5.066;2023-03-13T07:21:56;99820.16;;;13.62;100.00
65760;BME280;52496;51.082;5.066;2023-03-13T07:24:27;99822.63;;;13.64;100.00
65760;BME280;52496;51.082;5.066;2023-03-13T07:26:57;99819.69;;;13.65;100.00
65760;BME280;52496;51.082;5.066;2023-03-13T07:29:28;99801.50;;;13.67;100.00
65760;BME280;52496;51.082;5.066;2023-03-13T07:31:58;99827.91;;;13.70;100.00
65760;BME280;52496;51.082;5.066;2023-03-13T07:34:29;99819.59;;;13.72;100.00
65760;BME280;52496;51.082;5.066;2023-03-13T07:36:59;99818.31;;;13.74;100.00
65760;BME280;52496;51.082;5.066;2023-03-13T07:39:30;99822.66;;;13.75;100.00
65760;BME280;52496;51.082;5.066;2023-03-13T07:42:00;99817.28;;;13.75;100.00
65760;BME280;52496;51.082;5.066;2023-03-13T07:44:30;99827.78;;;13.77;100.00
65760;BME280;52496;51.082;5.066;2023-03-13T07:47:01;99820.34;;;13.79;100.00
65760;BME280;52496;51.082;5.066;2023-03-13T07:49:32;99821.16;;;13.80;100.00
65760;BME280;52496;51.082;5.066;2023-03-13T07:52:03;99815.31;;;13.83;100.00
65760;BME280;52496;51.082;5.066;2023-03-13T07:54:33;99804.31;;;13.84;100.00
65760;BME280;52496;51.082;5.066;2023-03-13T07:57:04;99796.63;;;13.88;100.00
65760;BME280;52496;51.082;5.066;2023-03-13T07:59:35;99803.53;;;13.95;100.00
65760;BME280;52496;51.082;5.066;2023-03-13T08:02:07;99808.91;;;14.07;100.00
65760;BME280;52496;51.082;5.066;2023-03-13T08:04:37;99808.59;;;14.15;100.00
65760;BME280;52496;51.082;5.066;2023-03-13T08:07:08;99807.66;;;14.21;100.00
65760;BME280;52496;51.082;5.066;2023-03-13T08:09:39;99809.28;;;14.22;100.00
65760;BME280;52496;51.082;5.066;2023-03-13T08:12:10;99780.31;;;14.25;100.00
65760;BME280;52496;51.082;5.066;2023-03-13T08:14:41;99801.69;;;14.31;100.00
65760;BME280;52496;51.082;5.066;2023-03-13T08:17:12;99785.53;;;14.43;100.00
65760;BME280;52496;51.082;5.066;2023-03-13T08:19:42;99793.84;;;14.53;100.00
65760;BME280;52496;51.082;5.066;2023-03-13T08:22:13;99793.03;;;14.64;100.00
65760;BME280;52496;51.082;5.066;2023-03-13T08:24:43;99785.75;;;14.77;100.00
65760;BME280;52496;51.082;5.066;2023-03-13T08:27:14;99791.00;;;14.83;100.00
65760;BME280;52496;51.082;5.066;2023-03-13T08:29:44;99787.94;;;14.91;100.00
65760;BME280;52496;51.082;5.066;2023-03-13T08:32:15;99788.34;;;15.00;100.00
65760;BME280;52496;51.082;5.066;2023-03-13T08:34:47;99797.03;;;15.02;100.00
65760;BME280;52496;51.082;5.066;2023-03-13T08:37:17;99781.34;;;14.99;100.00
65760;BME280;52496;51.082;5.066;2023-03-13T08:39:48;99781.34;;;14.99;100.00
65760;BME280;52496;51.082;5.066;2023-03-13T08:42:19;99782.97;;;15.00;100.00
65760;BME280;52496;51.082;5.066;2023-03-13T08:44:49;99786.25;;;15.02;100.00
65760;BME280;52496;51.082;5.066;2023-03-13T08:47:20;99779.81;;;15.03;100.00
65760;BME280;52496;51.082;5.066;2023-03-13T08:49:50;99782.06;;;15.06;100.00
65760;BME280;52496;51.082;5.066;2023-03-13T08:52:21;99775.13;;;15.10;100.00
65760;BME280;52496;51.082;5.066;2023-03-13T08:54:51;99773.56;;;15.14;100.00
65760;BME280;52496;51.082;5.066;2023-03-13T08:57:22;99780.94;;;15.19;100.00
65760;BME280;52496;51.082;5.066;2023-03-13T08:59:52;99772.59;;;15.21;100.00
65760;BME280;52496;51.082;5.066;2023-03-13T09:02:23;99763.97;;;15.19;100.00
65760;BME280;52496;51.082;5.066;2023-03-13T09:04:53;99760.59;;;15.11;100.00
65760;BME280;52496;51.082;5.066;2023-03-13T09:07:24;99773.25;;;15.11;100.00
65760;BME280;52496;51.082;5.066;2023-03-13T09:09:54;99765.75;;;15.13;100.00
65760;BME280;52496;51.082;5.066;2023-03-13T09:12:25;99763.97;;;15.19;100.00
65760;BME280;52496;51.082;5.066;2023-03-13T09:14:56;99775.88;;;15.23;100.00
65760;BME280;52496;51.082;5.066;2023-03-13T09:17:27;99757.06;;;15.40;100.00
65760;BME280;52496;51.082;5.066;2023-03-13T09:19:57;99755.84;;;15.64;100.00
65760;BME280;52496;51.082;5.066;2023-03-13T09:22:28;99753.28;;;15.69;100.00
65760;BME280;52496;51.082;5.066;2023-03-13T09:24:59;99749.66;;;15.64;100.00
65760;BME280;52496;51.082;5.066;2023-03-13T09:27:29;99748.75;;;15.58;100.00
65760;BME280;52496;51.082;5.066;2023-03-13T09:29:59;99749.97;;;15.50;100.00
65760;BME280;52496;51.082;5.066;2023-03-13T09:32:30;99748.84;;;15.46;100.00
65760;BME280;52496;51.082;5.066;2023-03-13T09:35:00;99729.97;;;15.46;100.00
65760;BME280;52496;51.082;5.066;2023-03-13T09:37:31;99733.47;;;15.47;100.00
65760;BME280;52496;51.082;5.066;2023-03-13T09:40:01;99726.31;;;15.52;100.00
65760;BME280;52496;51.082;5.066;2023-03-13T09:42:46;99736.13;;;15.58;100.00
65760;BME280;52496;51.082;5.066;2023-03-13T09:48:17;99731.38;;;15.66;100.00
65760;BME280;52496;51.082;5.066;2023-03-13T09:51:32;99727.72;;;15.72;100.00
65760;BME280;52496;51.082;5.066;2023-03-13T09:54:24;99708.75;;;16.00;100.00
65760;BME280;52496;51.082;5.066;2023-03-13T09:59:47;99699.91;;;16.44;100.00
65760;BME280;52496;51.082;5.066;2023-03-13T10:02:31;99693.72;;;16.48;100.00
65760;BME280;52496;51.082;5.066;2023-03-13T10:05:15;99685.44;;;16.55;100.00
65760;BME280;52496;51.082;5.066;2023-03-13T10:07:48;99683.63;;;16.61;100.00
65760;BME280;52496;51.082;5.066;2023-03-13T10:10:39;99684.72;;;16.60;100.00
65760;BME280;52496;51.082;5.066;2023-03-13T10:16:40;99689.31;;;16.64;100.00
65760;BME280;52496;51.082;5.066;2023-03-13T10:19:17;99668.56;;;16.65;100.00
65760;BME280;52496;51.082;5.066;2023-03-13T10:21:51;99661.59;;;16.69;100.00
65760;BME280;52496;51.082;5.066;2023-03-13T10:24:32;99659.59;;;16.81;100.00
65760;BME280;52496;51.082;5.066;2023-03-13T10:27:07;99662.50;;;17.02;100.00
65760;BME280;52496;51.082;5.066;2023-03-13T10:29:38;99649.44;;;17.20;97.20
65760;BME280;52496;51.082;5.066;2023-03-13T10:32:12;99654.03;;;17.20;96.47
65760;BME280;52496;51.082;5.066;2023-03-13T10:37:25;99652.31;;;17.09;96.65
65760;BME280;52496;51.082;5.066;2023-03-13T10:40:24;99645.22;;;17.03;97.83
65760;BME280;52496;51.082;5.066;2023-03-13T10:43:01;99643.03;;;17.00;99.54
65760;BME280;52496;51.082;5.066;2023-03-13T10:45:35;99640.78;;;16.91;97.37
65760;BME280;52496;51.082;5.066;2023-03-13T10:48:22;99643.69;;;16.85;98.63
65760;BME280;52496;51.082;5.066;2023-03-13T10:50:54;99642.94;;;16.89;97.90
65760;BME280;52496;51.082;5.066;2023-03-13T10:56:15;99626.84;;;17.00;97.49
65760;BME280;52496;51.082;5.066;2023-03-13T10:58:51;99620.91;;;17.03;95.82
65760;BME280;52496;51.082;5.066;2023-03-13T11:01:29;99616.63;;;17.07;94.78
65760;BME280;52496;51.082;5.066;2023-03-13T11:04:32;99624.69;;;17.02;94.27
65760;BME280;52496;51.082;5.066;2023-03-13T11:07:05;99609.81;;;16.99;94.26
65760;BME280;52496;51.082;5.066;2023-03-13T11:09:41;99600.03;;;16.93;95.10
65760;BME280;52496;51.082;5.066;2023-03-13T11:12:17;99610.84;;;16.93;93.91
65760;BME280;52496;51.082;5.066;2023-03-13T11:14:55;99601.97;;;16.97;93.71
65760;BME280;52496;51.082;5.066;2023-03-13T11:22:50;99594.72;;;17.35;93.47
65760;BME280;52496;51.082;5.066;2023-03-13T11:25:38;99580.75;;;17.49;93.09
65760;BME280;52496;51.082;5.066;2023-03-13T11:28:16;99584.66;;;17.68;92.16
65760;BME280;52496;51.082;5.066;2023-03-13T11:31:10;99560.44;;;17.83;88.36
65760;BME280;52496;51.082;5.066;2023-03-13T11:33:45;99576.72;;;18.04;88.18
65760;BME280;52496;51.082;5.066;2023-03-13T11:39:42;99556.75;;;18.15;83.96
65760;BME280;52496;51.082;5.066;2023-03-13T11:42:26;99555.75;;;18.37;84.42
65760;BME280;52496;51.082;5.066;2023-03-13T11:45:16;99520.06;;;18.60;79.14
65760;BME280;52496;51.082;5.066;2023-03-13T11:48:14;99538.50;;;19.09;78.48
65760;BME280;52496;51.082;5.066;2023-03-13T11:56:54;99548.53;;;19.03;74.93
65760;BME280;52496;51.082;5.066;2023-03-13T12:02:39;99527.09;;;19.33;75.27
65760;BME280;52496;51.082;5.066;2023-03-13T12:05:17;99541.97;;;19.35;74.06
65760;BME280;52496;51.082;5.066;2023-03-13T12:08:15;99517.56;;;19.40;72.92
65760;BME280;52496;51.082;5.066;2023-03-13T12:14:15;99515.03;;;19.80;72.97
65760;BME280;52496;51.082;5.066;2023-03-13T12:16:51;99498.13;;;20.03;73.93
65760;BME280;52496;51.082;5.066;2023-03-13T12:22:51;99513.84;;;20.01;69.47
65760;BME280;52496;51.082;5.066;2023-03-13T12:25:26;99495.78;;;19.81;72.93
65760;BME280;52496;51.082;5.066;2023-03-13T12:28:24;99486.78;;;19.86;71.65
65760;BME280;52496;51.082;5.066;2023-03-13T12:31:03;99473.59;;;19.69;69.48
65760;BME280;52496;51.082;5.066;2023-03-13T12:36:35;99480.88;;;19.79;72.96
65760;BME280;52496;51.082;5.066;2023-03-13T12:44:41;99475.66;;;20.37;69.52
65760;BME280;52496;51.082;5.066;2023-03-13T13:01:30;99467.31;;;20.62;64.68
65760;BME280;52496;51.082;5.066;2023-03-13T13:04:11;99464.69;;;20.47;64.94
65760;BME280;52496;51.082;5.066;2023-03-13T13:10:12;99457.78;;;20.26;63.94
65760;BME280;52496;51.082;5.066;2023-03-13T13:16:05;99435.72;;;19.98;66.56
65760;BME280;52496;51.082;5.066;2023-03-13T13:18:37;99441.22;;;19.88;67.72
65760;BME280;52496;51.082;5.066;2023-03-13T13:23:47;99415.78;;;19.74;68.10
65760;BME280;52496;51.082;5.066;2023-03-13T13:29:00;99395.13;;;19.83;69.52
65760;BME280;52496;51.082;5.066;2023-03-13T13:39:44;99398.88;;;19.32;69.34
65760;BME280;52496;51.082;5.066;2023-03-13T13:47:46;99387.88;;;19.03;72.02
65760;BME280;52496;51.082;5.066;2023-03-13T13:50:25;99381.88;;;19.16;72.79
65760;BME280;52496;51.082;5.066;2023-03-13T13:53:29;99372.91;;;19.21;68.45
65760;BME280;52496;51.082;5.066;2023-03-13T13:56:00;99367.59;;;18.90;68.66
65760;BME280;52496;51.082;5.066;2023-03-13T13:58:42;99372.78;;;18.66;68.20
65760;BME280;52496;51.082;5.066;2023-03-13T14:01:15;99373.84;;;18.50;69.45
65760;BME280;52496;51.082;5.066;2023-03-13T14:03:46;99370.09;;;18.36;71.98
65760;BME280;52496;51.082;5.066;2023-03-13T14:06:23;99377.94;;;18.42;72.62
65760;BME280;52496;51.082;5.066;2023-03-13T14:09:01;99385.50;;;18.55;71.46
65760;BME280;52496;51.082;5.066;2023-03-13T14:11:40;99370.59;;;18.63;71.05
65760;BME280;52496;51.082;5.066;2023-03-13T14:14:19;99379.00;;;18.82;68.31
65760;BME280;52496;51.082;5.066;2023-03-13T14:16:51;99374.28;;;19.18;65.50
65760;BME280;52496;51.082;5.066;2023-03-13T14:19:39;99376.84;;;19.54;65.97
65760;BME280;52496;51.082;5.066;2023-03-13T14:22:11;99368.53;;;19.85;62.57
65760;BME280;52496;51.082;5.066;2023-03-13T14:24:55;99371.19;;;19.90;62.61
65760;BME280;52496;51.082;5.066;2023-03-13T14:27:26;99369.38;;;19.80;62.13
65760;BME280;52496;51.082;5.066;2023-03-13T14:30:02;99372.34;;;19.84;61.30
65760;BME280;52496;51.082;5.066;2023-03-13T14:32:33;99341.13;;;19.86;60.41
65760;BME280;52496;51.082;5.066;2023-03-13T14:35:05;99344.81;;;19.66;61.11
65760;BME280;52496;51.082;5.066;2023-03-13T14:37:47;99359.47;;;19.50;58.45
65760;BME280;52496;51.082;5.066;2023-03-13T14:40:23;99337.78;;;19.50;59.23
65760;BME280;52496;51.082;5.066;2023-03-13T14:42:56;99335.28;;;19.69;58.84
65760;BME280;52496;51.082;5.066;2023-03-13T14:45:32;99329.00;;;19.79;59.60
65760;BME280;52496;51.082;5.066;2023-03-13T14:48:28;99328.75;;;20.09;59.25
65760;BME280;52496;51.082;5.066;2023-03-13T14:51:24;99333.97;;;20.01;56.19